Meteo Giornale » Osservazioni meteo Svizzera » Lugano

ore: 19:50 - Osservazioni Meteo Lugano
Lat. 46° 0' N Lon. 8° 58' E Alt. 273 metri s.l.m.

sereno Europe/Zurich

14 °C

Sereno

Temp. 24 Ore

3 °C

22 °C

Nord

5.5 Km/h

Dew point 2 °C

Umidità 44 %

Visibilità  10 Km

Il sole sorge alle ore 06:19

Il sole tramonta alle ore 18:41

Data e Ora Cielo e Fenomeni T °C DP °C Um. % Pres. hPa Vis. km Vento km/h
Oggi h: 19:50 sereno Sereno 14 2 44 1024 10 N 5.5
Oggi h: 19:20 sereno Sereno 17 2 36 1023 10 N 5.5
Oggi h: 18:50 sereno Sereno 18 1 31 1023 10 N 3.7
Oggi h: 18:20 sereno Sereno 18 2 34 1023 10 SO 9.3
Oggi h: 17:50 sereno Sereno 19 3 34 1022 10 S/SO 13
Oggi h: 17:20 sereno Sereno 20 3 32 1022 10 S/SO 14.8
Oggi h: 16:50 sereno Sereno 21 2 28 1022 10 S/SO 14.8
Oggi h: 16:20 sereno Sereno 21 2 28 1022 10 S/SO 14.8
Oggi h: 15:50 sereno Sereno 21 2 28 1023 10 S/SO 14.8
Oggi h: 15:20 sereno Sereno 21 3 30 1023 10 S 16.7
Oggi h: 14:50 sereno Sereno 22 2 26 1023 10 S 13
Oggi h: 14:20 sereno Sereno 22 -1 21 1023 10 S 9.3
Oggi h: 13:50 sereno Sereno 21 -1 22 1024 10 N 5.5
Oggi h: 13:20 sereno Sereno 20 -1 24 1024 10 S/SO 9.3
Oggi h: 12:50 sereno Sereno 20 -0 26 1025 10 N 5.5
Oggi h: 12:20 sereno Sereno 18 1 31 1025 10 N 5.5
Oggi h: 11:50 sereno Sereno 16 2 38 1026 10 S/SO 7.4
Oggi h: 11:20 sereno Sereno 15 1 38 1026 10 N 5.5
Oggi h: 10:50 sereno Sereno 14 1 41 1026 10 N 5.5
Oggi h: 10:20 sereno Sereno 12 1 46 1027 10 N 5.5
Oggi h: 09:50 sereno Sereno 13 -2 35 1027 10 N 1.8
Oggi h: 09:20 sereno Sereno 11 1 50 1027 10 N 1.8
Oggi h: 08:50 sereno Sereno 9 1 57 1027 10 N 0
Oggi h: 08:20 sereno Sereno 5 1 75 1027 10 N 1.8
Oggi h: 07:50 sereno Sereno 3 -0 80 1027 10 N 5.5
Oggi h: 07:20 sereno Sereno 3 0 80 1027 10 N 1.8
Oggi h: 06:50 sereno Sereno 3 -1 74 1027 10 N 1.8
Oggi h: 06:20 sereno Sereno 3 1 86 1027 10 N 3.7
Oggi h: 05:50 sereno Sereno 3 -0 80 1027 10 N 3.7
Oggi h: 05:20 sereno Sereno 3 -0 80 1027 10 N 5.5
Oggi h: 04:50 sereno Sereno 3 -1 74 1027 10 N 3.7
Oggi h: 04:20 sereno Sereno 3 0 80 1027 10 N 1.8
Oggi h: 03:50 sereno Sereno 4 1 80 1027 10 N 1.8
Oggi h: 03:20 sereno Sereno 4 1 80 1027 10 N 3.7
Oggi h: 01:50 sereno Sereno 5 2 80 1028 10 N 1.8
Oggi h: 01:20 sereno Sereno 5 1 75 1028 10 N 1.8
Oggi h: 00:50 sereno Sereno 6 2 75 1028 10 N 5.5
Oggi h: 00:20 sereno Sereno 6 2 75 1028 10 N 1.8
Ieri h: 23:50 sereno Sereno 6 3 81 1028 10 N 3.7
Ieri h: 23:20 sereno Sereno 7 2 70 1028 10 N 0
Ieri h: 22:50 sereno Sereno 7 2 70 1028 10 N 1.8
Ieri h: 22:20 sereno Sereno 9 3 66 1028 10 N 3.7
Ieri h: 21:50 sereno Sereno 9 3 66 1028 10 N 1.8
Ieri h: 21:20 sereno Sereno 10 3 61 1028 10 N 1.8
Ieri h: 20:50 sereno Sereno 10 2 57 1027 10 N 1.8
Ieri h: 20:20 sereno Sereno 11 2 53 1027 10 N 3.7
Ieri h: 19:50 sereno Sereno 12 1 46 1027 10 N 3.7